Time;durP1;ratioP1;P1;durP2;ratioP2;P2;SDS_P1;SDS_P2;PMS_P1;PMS_P2;Temp;Humidity;BMP_temperature;BMP_pressure;BME280_temperature;BME280_humidity;BME280_pressure;Samples;Min_cycle;Max_cycle;Signal;HPM_P1;HPM_P2
2022/08/22 00:00:54;;;;;;;11.48;3.97;;;14.50;99.90;;;13.54;100.00;101215.22;5009750;28;20042;-78
2022/08/22 00:03:44;;;;;;;10.98;4.43;;;14.50;99.90;;;13.56;100.00;101216.00;4980694;28;20037;-78
2022/08/22 00:06:21;;;;;;;13.02;4.18;;;14.60;99.90;;;13.57;100.00;101220.38;4977375;28;20038;-76
2022/08/22 00:09:22;;;;;;;16.48;3.97;;;14.60;99.90;;;13.62;100.00;101220.97;5007434;28;20048;-78
2022/08/22 00:11:55;;;;;;;10.98;4.30;;;14.60;99.90;;;13.61;100.00;101221.06;4987951;28;20081;-79
2022/08/22 00:14:23;;;;;;;14.95;4.80;;;14.60;99.90;;;13.62;100.00;101220.13;4975448;28;20037;-78
2022/08/22 00:17:16;;;;;;;17.90;4.20;;;14.60;99.90;;;13.59;100.00;101215.00;4994742;28;20120;-78
2022/08/22 00:19:59;;;;;;;4.63;2.78;;;14.50;99.90;;;13.53;100.00;101218.81;5006767;28;20034;-78
2022/08/22 00:22:34;;;;;;;15.10;4.38;;;14.50;99.90;;;13.48;100.00;101221.69;5007152;28;20057;-78
2022/08/22 00:25:55;;;;;;;10.27;2.13;;;14.50;99.90;;;13.41;100.00;101209.72;4998281;28;20033;-78
2022/08/22 00:28:53;;;;;;;10.70;3.47;;;14.40;99.90;;;13.36;100.00;101216.16;5008545;28;20556;-77
2022/08/22 00:31:30;;;;;;;11.82;4.25;;;14.40;99.90;;;13.37;100.00;101217.88;4995841;28;20480;-77
2022/08/22 00:34:31;;;;;;;17.88;4.35;;;14.40;99.90;;;13.40;100.00;101213.28;4998457;28;20092;-77
2022/08/22 00:37:15;;;;;;;7.30;2.17;;;14.40;99.90;;;13.33;100.00;101223.31;4987043;28;20444;-78
2022/08/22 00:40:34;;;;;;;9.52;3.28;;;14.30;99.90;;;13.22;100.00;101224.78;4998327;28;20665;-77
2022/08/22 00:43:09;;;;;;;7.47;1.92;;;14.20;99.90;;;13.10;100.00;101221.78;4996983;28;20056;-77
2022/08/22 00:46:19;;;;;;;5.28;2.10;;;14.10;99.90;;;13.06;100.00;101229.94;5011205;28;20072;-77
2022/08/22 00:48:51;;;;;;;6.80;2.95;;;14.10;99.90;;;13.00;100.00;101230.22;5015026;28;20091;-78
2022/08/22 00:51:30;;;;;;;6.38;3.40;;;14.00;99.90;;;12.97;100.00;101230.41;4978882;28;20065;-77
2022/08/22 00:54:15;;;;;;;7.00;2.45;;;14.00;99.90;;;12.89;100.00;101228.13;4997075;28;20121;-77
2022/08/22 00:57:06;;;;;;;13.32;3.25;;;13.90;99.90;;;12.84;100.00;101227.50;4998666;28;21150;-77
2022/08/22 00:59:59;;;;;;;8.35;2.60;;;14.00;99.90;;;12.76;100.00;101234.91;5000166;28;20129;-77
2022/08/22 01:02:49;;;;;;;11.70;5.28;;;13.80;99.90;;;12.75;100.00;101223.50;5007698;28;20038;-77
2022/08/22 01:05:24;;;;;;;17.00;6.00;;;13.80;99.90;;;12.76;100.00;101224.34;4987014;28;20048;-77
2022/08/22 01:08:14;;;;;;;12.25;5.20;;;13.80;99.90;;;12.77;100.00;101232.22;4990633;28;20489;-78
2022/08/22 01:11:03;;;;;;;8.02;2.83;;;13.80;99.90;;;12.77;100.00;101224.28;5024334;28;20037;-78
2022/08/22 01:14:10;;;;;;;13.95;5.32;;;13.80;99.90;;;12.77;100.00;101229.56;4993282;28;20107;-77
2022/08/22 01:16:48;;;;;;;13.07;5.43;;;13.70;99.90;;;12.79;100.00;101235.63;4983155;28;20107;-77
2022/08/22 01:19:35;;;;;;;13.52;4.40;;;13.80;99.90;;;12.82;100.00;101232.00;4982259;28;20035;-78
2022/08/22 01:22:36;;;;;;;11.25;4.10;;;13.80;99.90;;;12.82;100.00;101237.28;4994350;28;20049;-78
2022/08/22 01:25:58;;;;;;;13.68;4.97;;;13.80;99.90;;;12.84;100.00;101236.25;5009049;28;20445;-77
2022/08/22 01:29:15;;;;;;;15.65;6.53;;;13.80;99.90;;;12.86;100.00;101239.69;5009756;28;20107;-77
2022/08/22 01:32:30;;;;;;;80.22;8.48;;;13.80;99.90;;;12.83;100.00;101245.13;4969280;28;20558;-77
2022/08/22 01:35:19;;;;;;;9.73;4.38;;;13.80;99.90;;;12.79;100.00;101243.56;5008124;28;20041;-76
2022/08/22 01:38:18;;;;;;;13.68;6.30;;;13.80;99.90;;;12.80;100.00;101249.69;4980413;28;20549;-77
2022/08/22 01:41:16;;;;;;;7.47;3.80;;;13.80;99.90;;;12.77;100.00;101242.78;5004747;28;20151;-77
2022/08/22 01:44:03;;;;;;;12.45;4.78;;;13.80;99.90;;;12.75;100.00;101244.66;4984432;28;20057;-78
2022/08/22 01:47:12;;;;;;;12.18;4.82;;;13.70;99.90;;;12.73;100.00;101249.13;4974964;28;20048;-79
2022/08/22 01:50:11;;;;;;;12.23;5.55;;;13.70;99.90;;;12.72;100.00;101247.41;4989436;28;20129;-78
2022/08/22 01:52:47;;;;;;;17.48;8.38;;;13.70;99.90;;;12.71;100.00;101245.72;5012168;28;20153;-78
2022/08/22 01:55:59;;;;;;;21.50;10.40;;;13.70;99.90;;;12.73;100.00;101255.28;4983878;28;20029;-77
2022/08/22 01:58:30;;;;;;;16.85;8.32;;;13.70;99.90;;;12.72;100.00;101252.69;4986437;28;20046;-78
2022/08/22 02:01:23;;;;;;;20.33;10.25;;;13.70;99.90;;;12.77;100.00;101261.28;4999606;28;20041;-77
2022/08/22 02:04:20;;;;;;;19.25;8.88;;;13.70;99.90;;;12.80;100.00;101261.13;4979390;28;20037;-78
2022/08/22 02:07:26;;;;;;;16.95;8.45;;;13.80;99.90;;;12.82;100.00;101258.41;4948841;28;20799;-77
2022/08/22 02:10:09;;;;;;;16.42;7.82;;;13.80;99.90;;;12.80;100.00;101263.75;4998258;28;20056;-77
2022/08/22 02:12:59;;;;;;;23.00;8.45;;;13.80;99.90;;;12.73;100.00;101265.00;4973481;28;20498;-76
2022/08/22 02:16:17;;;;;;;17.50;7.65;;;13.70;99.90;;;12.64;100.00;101260.16;4972472;28;20046;-77
2022/08/22 02:19:13;;;;;;;8.50;3.90;;;13.60;99.90;;;12.58;100.00;101258.63;4980776;28;20148;-77
2022/08/22 02:21:54;;;;;;;9.32;4.55;;;13.60;99.90;;;12.56;100.00;101262.28;5004580;28;20044;-77
2022/08/22 02:25:11;;;;;;;8.60;3.60;;;13.60;99.90;;;12.55;100.00;101264.06;4979244;28;20700;-77
2022/08/22 02:27:58;;;;;;;20.20;6.97;;;13.50;99.90;;;12.58;100.00;101255.16;4954704;28;20040;-77
2022/08/22 02:31:00;;;;;;;14.52;6.18;;;13.60;99.90;;;12.63;100.00;101258.41;4998420;28;20394;-76
2022/08/22 02:33:44;;;;;;;20.60;6.40;;;13.60;99.90;;;12.68;100.00;101259.06;4969738;28;20046;-77
2022/08/22 02:36:24;;;;;;;15.23;6.55;;;13.70;99.90;;;12.72;100.00;101264.16;4975896;28;20486;-78
2022/08/22 02:39:32;;;;;;;12.15;6.00;;;13.80;99.90;;;12.76;100.00;101256.06;4989339;28;20916;-78
2022/08/22 02:42:39;;;;;;;17.00;6.32;;;13.80;99.90;;;12.80;100.00;101255.84;4984693;28;20037;-77
2022/08/22 02:45:44;;;;;;;18.08;6.65;;;13.80;99.90;;;12.84;100.00;101254.75;4970873;28;20042;-77
2022/08/22 02:48:31;;;;;;;18.05;6.35;;;13.90;99.90;;;12.84;100.00;101262.69;4986445;28;20036;-78
2022/08/22 02:51:20;;;;;;;13.75;5.80;;;13.90;99.90;;;12.86;100.00;101258.19;4990060;28;20046;-77
2022/08/22 02:54:18;;;;;;;13.77;5.93;;;13.90;99.90;;;12.85;100.00;101261.78;4992965;28;20036;-77
2022/08/22 02:57:31;;;;;;;11.07;6.10;;;13.90;99.90;;;12.84;100.00;101256.56;4982511;28;20121;-78
2022/08/22 03:00:28;;;;;;;9.27;5.50;;;13.90;99.90;;;12.78;100.00;101265.63;4999829;28;20544;-77
2022/08/22 03:03:15;;;;;;;15.48;5.72;;;13.80;99.90;;;12.78;100.00;101268.25;5006554;28;20068;-76
2022/08/22 03:05:44;;;;;;;11.63;5.00;;;13.80;99.90;;;12.75;100.00;101257.84;4972502;28;20042;-78
2022/08/22 03:08:27;;;;;;;13.55;5.60;;;13.80;99.90;;;12.75;100.00;101263.13;5025913;28;20047;-77
2022/08/22 03:11:25;;;;;;;12.23;5.50;;;13.80;99.90;;;12.77;100.00;101260.44;5013885;28;20039;-77
2022/08/22 03:14:41;;;;;;;9.30;6.07;;;13.80;99.90;;;12.74;100.00;101264.06;5007996;28;20034;-77
2022/08/22 03:17:37;;;;;;;18.52;6.28;;;13.80;99.90;;;12.69;100.00;101260.78;4995767;28;20044;-77
2022/08/22 03:20:10;;;;;;;16.73;6.88;;;13.80;99.90;;;12.72;100.00;101257.97;4993811;28;20091;-76
2022/08/22 03:22:44;;;;;;;17.83;6.93;;;13.80;99.90;;;12.76;100.00;101250.78;5005819;28;20414;-78
2022/08/22 03:25:56;;;;;;;18.65;6.82;;;13.80;99.90;;;12.76;100.00;101259.56;4988763;28;20061;-79
2022/08/22 03:28:47;;;;;;;17.35;8.15;;;13.80;99.90;;;12.78;100.00;101256.84;4983494;28;20038;-77
2022/08/22 03:31:23;;;;;;;17.73;7.47;;;13.80;99.90;;;12.79;100.00;101255.94;5005351;28;20123;-76
2022/08/22 03:34:19;;;;;;;7.03;3.97;;;13.80;99.90;;;12.72;100.00;101260.63;4954281;28;20044;-77
2022/08/22 03:37:25;;;;;;;7.35;3.63;;;13.70;99.90;;;12.63;100.00;101253.97;4969622;28;20121;-78
2022/08/22 03:40:02;;;;;;;318.80;11.93;;;13.60;99.90;;;12.46;100.00;101256.56;4952390;28;20026;-77
2022/08/22 03:43:07;;;;;;;2.20;1.60;;;13.40;99.90;;;12.25;100.00;101256.63;4960361;28;20498;-77
2022/08/22 03:46:10;;;;;;;14.52;5.20;;;13.30;99.90;;;12.16;100.00;101257.03;4974349;28;20619;-77
2022/08/22 03:49:10;;;;;;;10.75;5.97;;;13.20;99.90;;;12.11;100.00;101259.84;4984028;28;20725;-77
2022/08/22 03:52:32;;;;;;;7.78;4.18;;;13.20;99.90;;;12.09;100.00;101256.47;4992244;28;20034;-78
2022/08/22 03:55:32;;;;;;;14.27;6.57;;;13.20;99.90;;;12.07;100.00;101255.66;5011232;28;20644;-78
2022/08/22 03:58:19;;;;;;;17.33;7.70;;;13.10;99.90;;;12.08;100.00;101267.94;5016371;28;20034;-77
2022/08/22 04:01:38;;;;;;;12.90;6.97;;;13.10;99.90;;;12.11;100.00;101266.94;4996998;28;20091;-77
2022/08/22 04:04:12;;;;;;;9.90;5.60;;;13.20;99.90;;;12.16;100.00;101269.34;4955827;28;20061;-77
2022/08/22 04:07:17;;;;;;;13.98;5.25;;;13.80;99.90;;;12.23;100.00;101265.53;5003337;28;20030;-75
2022/08/22 04:09:51;;;;;;;16.83;7.22;;;13.30;99.90;;;12.30;100.00;101267.81;4996194;28;20062;-76
2022/08/22 04:13:01;;;;;;;13.43;6.25;;;13.30;99.90;;;12.41;100.00;101272.63;4968204;28;20583;-76
2022/08/22 04:16:33;;;;;;;10.80;5.90;;;13.40;99.90;;;12.49;100.00;101273.13;4993694;28;20104;-76
2022/08/22 04:19:40;;;;;;;10.75;3.92;;;13.50;99.90;;;12.47;100.00;101272.34;4993885;28;20493;-79
2022/08/22 04:22:39;;;;;;;6.03;4.30;;;13.40;99.90;;;12.47;100.00;101276.78;4977456;28;20045;-75
2022/08/22 04:25:22;;;;;;;8.88;4.63;;;13.40;99.90;;;12.47;100.00;101280.25;4994577;28;20052;-78
2022/08/22 04:28:01;;;;;;;13.48;5.85;;;13.40;99.90;;;12.43;100.00;101289.25;5022630;28;21582;-75
2022/08/22 04:31:16;;;;;;;16.48;7.13;;;13.40;99.90;;;12.48;100.00;101297.84;4959833;28;20037;-76
2022/08/22 04:33:52;;;;;;;18.35;7.45;;;13.50;99.90;;;12.57;100.00;101288.63;4992198;28;20040;-76
2022/08/22 04:37:03;;;;;;;10.07;5.95;;;13.50;99.90;;;12.68;100.00;101293.44;4971916;28;20118;-76
2022/08/22 04:39:34;;;;;;;16.77;5.80;;;13.60;99.90;;;12.82;100.00;101296.25;4980672;28;20034;-76
2022/08/22 04:42:13;;;;;;;10.70;5.65;;;13.70;99.90;;;13.00;100.00;101305.13;5000051;28;20033;-77
2022/08/22 04:45:11;;;;;;;12.05;5.22;;;13.90;99.90;;;13.22;100.00;101310.25;4980197;28;20038;-76
2022/08/22 04:47:58;;;;;;;10.23;5.70;;;14.10;99.90;;;13.51;100.00;101308.84;4989779;28;20052;-79
2022/08/22 04:50:33;;;;;;;;;;;14.30;99.90;;;13.80;100.00;101316.25;4954355;28;20676;-75
2022/08/22 04:53:47;;;;;;;14.98;7.10;;;14.50;99.90;;;14.27;100.00;101320.88;4972260;28;20565;-76
2022/08/22 04:56:50;;;;;;;9.57;6.70;;;15.00;99.90;;;15.58;100.00;101328.69;4987643;28;20095;-76
2022/08/22 04:59:18;;;;;;;10.82;5.55;;;15.70;99.90;;;16.35;99.43;101331.28;4998439;28;20520;-76
2022/08/22 05:01:55;;;;;;;17.67;6.10;;;16.40;99.90;;;17.57;92.43;101330.56;5006389;28;20509;-79
2022/08/22 05:04:36;;;;;;;11.05;5.05;;;17.10;99.90;;;18.01;87.64;101337.44;5007657;28;20164;-76
2022/08/22 05:07:19;;;;;;;9.23;4.45;;;17.50;99.90;;;18.00;86.44;101332.19;5007707;28;20073;-78
2022/08/22 05:09:58;;;;;;;16.58;4.35;;;17.80;99.90;;;18.07;85.95;101335.28;4932258;28;20045;-78
2022/08/22 05:12:38;;;;;;;12.35;3.97;;;18.10;99.90;;;18.60;85.02;101339.56;4952133;28;20457;-77
2022/08/22 05:15:26;;;;;;;11.85;4.35;;;18.50;99.90;;;19.80;80.33;101338.00;4982976;28;20153;-76
2022/08/22 05:17:56;;;;;;;10.65;3.92;;;19.10;99.90;;;21.04;75.43;101351.53;4989087;28;20041;-76
2022/08/22 05:20:29;;;;;;;12.40;4.30;;;19.80;99.90;;;21.86;71.69;101357.25;4980578;28;20836;-76
2022/08/22 05:23:56;;;;;;;10.80;4.25;;;20.40;99.90;;;22.85;67.35;101372.91;4967664;28;20037;-76
2022/08/22 05:26:23;;;;;;;12.10;4.53;;;21.20;99.90;;;23.89;64.09;101366.22;4970520;28;20022;-79
2022/08/22 05:28:59;;;;;;;9.13;3.90;;;21.70;99.90;;;23.88;63.79;101372.56;4992391;28;20053;-77
2022/08/22 05:31:33;;;;;;;11.45;3.75;;;22.20;99.90;;;24.14;63.03;101380.06;4979231;28;20037;-76
2022/08/22 05:34:13;;;;;;;11.77;3.63;;;22.50;99.90;;;24.44;62.58;101384.38;4973500;28;20098;-78
2022/08/22 05:36:51;;;;;;;10.05;3.65;;;22.90;99.90;;;25.07;60.95;101396.34;4973643;28;20034;-77
2022/08/22 05:39:25;;;;;;;11.02;3.90;;;23.20;99.90;;;25.33;60.00;101394.66;4968482;28;20068;-77
2022/08/22 05:41:55;;;;;;;13.70;4.13;;;23.40;99.90;;;25.41;59.28;101399.28;5005551;28;20458;-76
2022/08/22 05:44:36;;;;;;;10.55;3.97;;;23.50;99.90;;;25.37;59.55;101401.44;4950965;28;20037;-77
2022/08/22 05:47:12;;;;;;;17.30;4.60;;;23.60;99.90;;;25.03;60.54;101405.72;4980448;28;20090;-79
2022/08/22 05:50:02;;;;;;;8.55;3.50;;;23.60;99.90;;;25.03;60.48;101406.56;4951447;28;20034;-79
2022/08/22 05:52:55;;;;;;;8.73;3.72;;;23.60;99.90;;;25.03;60.76;101411.94;4967418;28;20041;-76
2022/08/22 05:55:41;;;;;;;11.65;4.13;;;23.70;99.90;;;25.52;60.15;101411.72;4982300;28;20119;-77
2022/08/22 05:58:40;;;;;;;10.33;3.80;;;23.90;99.90;;;26.26;58.42;101412.38;4967845;28;20059;-76
2022/08/22 06:01:42;;;;;;;9.93;3.40;;;24.20;99.90;;;26.59;56.62;101411.63;5019495;28;20053;-76
2022/08/22 06:04:53;;;;;;;8.90;3.60;;;24.60;99.90;;;26.71;57.82;101414.91;4966740;28;20042;-77
2022/08/22 06:07:39;;;;;;;17.80;3.75;;;24.80;99.90;;;26.70;57.77;101424.03;5008259;28;20033;-77
2022/08/22 06:10:44;;;;;;;12.15;3.25;;;24.90;99.90;;;25.98;56.95;101424.16;5006794;28;20049;-77
2022/08/22 06:13:37;;;;;;;9.05;3.22;;;24.60;99.90;;;24.92;61.85;101426.50;4967170;28;20077;-77
2022/08/22 06:16:19;;;;;;;7.00;3.17;;;24.40;99.90;;;24.92;63.71;101431.88;4973993;28;20136;-77
2022/08/22 06:18:48;;;;;;;11.25;3.65;;;24.40;99.90;;;25.15;63.76;101431.47;4985499;28;20060;-77
2022/08/22 06:21:21;;;;;;;10.10;2.88;;;24.40;99.90;;;24.82;64.62;101432.91;4975532;28;20037;-80
2022/08/22 06:23:52;;;;;;;15.30;3.83;;;24.20;99.90;;;24.07;67.39;101428.22;4981624;28;20041;-77
2022/08/22 06:26:19;;;;;;;17.25;3.45;;;24.00;99.90;;;23.88;69.34;101420.97;4970958;28;20395;-77
2022/08/22 06:28:54;;;;;;;9.02;3.08;;;23.90;99.90;;;23.86;68.80;101420.28;4978475;28;20049;-77
2022/08/22 06:31:31;;;;;;;13.25;3.03;;;23.70;99.90;;;23.64;70.87;101424.06;4963684;28;20030;-78
2022/08/22 06:34:00;;;;;;;9.13;3.10;;;23.40;99.90;;;22.66;73.18;101419.34;4991229;28;20046;-76
2022/08/22 06:36:29;;;;;;;10.57;3.50;;;23.10;99.90;;;22.41;76.45;101423.28;4995651;28;20045;-78
2022/08/22 06:39:22;;;;;;;10.25;3.30;;;23.10;99.90;;;22.78;77.33;101425.47;4980742;28;20025;-77
2022/08/22 06:42:08;;;;;;;11.00;3.50;;;23.10;99.90;;;23.09;75.47;101429.03;4971453;28;20057;-77
2022/08/22 06:44:51;;;;;;;15.02;3.50;;;23.30;99.90;;;23.77;74.51;101421.13;4979248;28;20502;-80
2022/08/22 06:47:31;;;;;;;12.05;2.88;;;23.80;99.90;;;24.66;70.74;101434.34;4952791;28;20036;-80
2022/08/22 06:50:11;;;;;;;9.52;2.65;;;24.50;99.90;;;25.70;67.96;101427.88;4961445;28;20371;-79
2022/08/22 06:53:08;;;;;;;10.35;2.83;;;25.20;99.90;;;26.40;64.58;101426.16;4994405;28;20034;-79
2022/08/22 06:55:40;;;;;;;6.60;2.65;;;25.90;99.90;;;27.00;63.95;101438.03;4992041;28;20087;-80
2022/08/22 06:58:35;;;;;;;9.07;2.63;;;26.50;99.90;;;27.66;62.62;101432.84;4995538;28;20038;-77
2022/08/22 07:01:15;;;;;;;8.32;2.40;;;27.20;99.90;;;29.01;57.96;101436.81;4971509;28;20563;-78
2022/08/22 07:03:51;;;;;;;10.82;2.70;;;28.10;99.90;;;29.04;57.02;101431.03;4984019;28;20104;-77
2022/08/22 07:06:30;;;;;;;8.77;2.20;;;28.50;99.90;;;29.19;57.51;101442.03;4960092;28;20050;-77
2022/08/22 07:08:57;;;;;;;13.85;2.88;;;28.70;99.90;;;29.04;58.79;101455.44;4977510;28;20088;-77
2022/08/22 07:11:31;;;;;;;12.48;3.10;;;29.10;99.90;;;29.95;56.88;101458.53;4984570;28;20037;-77
2022/08/22 07:14:05;;;;;;;7.43;2.47;;;29.40;99.90;;;30.20;56.53;101460.03;4950903;28;20217;-78
2022/08/22 07:16:42;;;;;;;7.75;2.42;;;29.70;99.90;;;29.93;55.03;101457.88;4949823;28;20053;-77
2022/08/22 07:19:26;;;;;;;12.65;3.35;;;29.80;99.90;;;30.27;55.30;101462.88;4980925;28;20121;-77
2022/08/22 07:21:53;;;;;;;14.10;2.90;;;30.30;99.90;;;30.66;53.60;101467.28;4964208;28;20072;-77
2022/08/22 07:24:28;;;;;;;9.43;2.67;;;30.60;99.90;;;30.94;54.36;101467.50;4969004;28;20041;-78
2022/08/22 07:27:36;;;;;;;9.27;2.88;;;30.80;99.90;;;30.77;53.02;101461.38;4944043;28;20045;-77
2022/08/22 07:30:11;;;;;;;10.85;2.65;;;30.80;99.70;;;30.03;53.04;101459.31;4937482;28;20038;-78
2022/08/22 07:33:00;;;;;;;12.20;3.15;;;30.20;99.50;;;29.01;54.80;101458.50;4938523;28;20573;-77
2022/08/22 07:35:41;;;;;;;12.88;2.97;;;30.00;99.90;;;29.85;54.75;101466.94;4955578;28;20038;-77
2022/08/22 07:38:41;;;;;;;8.48;2.42;;;30.20;99.90;;;30.09;52.30;101462.31;4953232;28;20038;-78
2022/08/22 07:41:13;;;;;;;11.93;2.67;;;30.60;99.50;;;30.80;52.74;101469.16;4937678;28;20160;-78
2022/08/22 07:44:02;;;;;;;9.98;2.20;;;30.90;98.00;;;30.32;51.18;101468.63;4958203;28;20465;-77
2022/08/22 07:46:55;;;;;;;10.95;2.38;;;30.70;98.90;;;30.08;52.01;101466.94;4973284;28;20029;-77
2022/08/22 07:49:35;;;;;;;8.52;2.50;;;30.70;99.70;;;30.37;51.85;101476.25;4981581;28;20056;-78
2022/08/22 07:52:09;;;;;;;9.63;2.60;;;30.40;99.10;;;29.98;52.94;101477.19;4958229;28;20505;-77
2022/08/22 07:54:47;;;;;;;12.02;2.60;;;30.40;99.10;;;29.87;53.89;101481.19;4991273;28;20045;-77
2022/08/22 07:57:35;;;;;;;9.20;2.40;;;30.30;97.90;;;29.69;52.21;101472.44;4993762;28;20052;-77
2022/08/22 08:00:11;;;;;;;12.27;2.00;;;30.30;98.30;;;29.78;51.89;101474.09;4956746;28;20041;-77
2022/08/22 08:02:45;;;;;;;7.95;2.30;;;30.30;98.50;;;29.79;53.10;101478.53;4949584;28;20404;-78
2022/08/22 08:05:13;;;;;;;12.32;2.83;;;29.80;97.10;;;28.73;53.90;101475.19;4956078;28;20097;-78
2022/08/22 08:07:44;;;;;;;12.02;2.33;;;29.40;98.10;;;28.67;54.69;101470.47;4998367;28;20038;-78
2022/08/22 08:10:21;;;;;;;14.10;2.67;;;29.50;99.40;;;29.45;53.59;101476.97;4932718;28;20025;-78
2022/08/22 08:12:53;;;;;;;13.02;2.28;;;29.70;98.50;;;29.42;52.69;101477.34;4954618;28;20124;-77
2022/08/22 08:15:22;;;;;;;10.30;2.42;;;29.90;98.10;;;29.71;52.94;101473.97;4967090;28;20108;-77
2022/08/22 08:18:04;;;;;;;7.90;2.08;;;30.10;97.80;;;29.82;50.99;101475.44;4983761;28;20052;-78
2022/08/22 08:20:34;;;;;;;10.13;2.15;;;30.20;97.40;;;30.01;51.71;101477.66;5003629;28;20068;-79
2022/08/22 08:23:02;;;;;;;11.80;2.40;;;30.30;97.80;;;30.26;51.99;101474.78;4954221;28;20041;-78
2022/08/22 08:25:31;;;;;;;10.52;2.50;;;30.70;97.70;;;30.84;50.91;101469.63;4955997;28;20037;-77
2022/08/22 08:28:40;;;;;;;10.43;2.38;;;30.80;96.50;;;30.35;51.31;101470.13;4948611;28;20121;-77
2022/08/22 08:31:23;;;;;;;10.75;2.47;;;31.00;97.60;;;30.40;50.19;101479.41;4987776;28;20045;-77
2022/08/22 08:34:02;;;;;;;12.00;1.80;;;30.70;96.60;;;29.72;50.74;101466.69;4955184;28;20111;-77
2022/08/22 08:36:52;;;;;;;17.77;3.67;;;30.20;96.10;;;29.23;50.98;101463.19;4945782;28;21888;-78
2022/08/22 08:39:40;;;;;;;9.73;2.00;;;30.10;96.80;;;29.31;51.24;101464.16;4974959;28;20051;-78
2022/08/22 08:46:49;;;;;;;12.88;2.13;;;29.60;96.30;;;29.10;50.60;101465.63;4989993;28;20056;-77
2022/08/22 08:49:36;;;;;;;9.95;2.42;;;29.60;97.10;;;29.35;50.65;101465.50;4980703;28;20236;-77
2022/08/22 08:52:20;;;;;;;11.98;2.67;;;29.50;95.40;;;28.86;51.22;101466.53;4985067;28;20077;-77
2022/08/22 08:55:11;;;;;;;9.20;2.25;;;29.50;97.30;;;27.35;52.93;101455.94;4998908;28;20827;-76
2022/08/22 08:57:57;;;;;;;8.88;2.90;;;28.40;97.60;;;27.82;54.50;101462.66;4968158;28;20041;-77
2022/08/22 09:00:57;;;;;;;10.50;2.13;;;28.00;97.00;;;27.04;54.07;101450.22;4961195;28;20045;-77
2022/08/22 09:04:04;;;;;;;10.38;2.10;;;27.60;97.80;;;26.71;55.76;101455.41;4981404;28;20502;-76
2022/08/22 09:06:50;;;;;;;13.00;2.35;;;27.40;98.10;;;26.66;56.40;101456.91;4983122;28;20056;-78
2022/08/22 09:09:57;;;;;;;13.52;2.70;;;27.30;99.90;;;26.92;57.26;101454.19;4991905;28;20036;-77
2022/08/22 09:12:46;;;;;;;11.17;2.27;;;27.20;99.80;;;26.52;58.54;101447.50;4995441;28;20140;-76
2022/08/22 09:15:51;;;;;;;10.75;2.22;;;27.20;99.90;;;26.71;58.47;101454.56;4963794;28;20121;-77
2022/08/22 09:19:15;;;;;;;6.13;2.00;;;27.00;99.40;;;26.11;58.51;101460.69;5005892;28;20645;-76
2022/08/22 09:22:18;;;;;;;9.13;2.35;;;26.80;99.90;;;26.05;59.67;101461.28;4978917;28;20041;-77
2022/08/22 09:25:14;;;;;;;10.45;2.20;;;26.60;99.90;;;25.92;58.82;101459.00;4982119;28;20658;-76
2022/08/22 09:28:11;;;;;;;8.77;2.10;;;26.10;99.90;;;25.29;61.35;101455.28;5005488;28;20041;-77
2022/08/22 09:30:49;;;;;;;9.30;2.30;;;26.20;99.90;;;25.60;59.78;101446.00;5005230;28;20073;-76
2022/08/22 09:33:23;;;;;;;9.10;2.28;;;26.30;99.90;;;25.81;60.12;101454.66;4993728;28;20046;-77
2022/08/22 09:36:02;;;;;;;9.32;2.10;;;26.30;99.90;;;25.80;59.08;101447.56;4996152;28;20131;-77
2022/08/22 09:39:13;;;;;;;11.15;2.42;;;26.40;99.90;;;25.87;58.34;101451.31;4982564;28;20043;-78
2022/08/22 09:42:06;;;;;;;9.70;2.30;;;26.40;99.90;;;25.64;60.20;101447.38;5003734;28;20108;-77
2022/08/22 09:45:06;;;;;;;9.48;2.17;;;26.30;99.90;;;25.55;60.18;101444.63;4972679;28;20053;-79
2022/08/22 09:48:12;;;;;;;10.90;2.60;;;26.40;99.90;;;25.77;61.29;101448.72;4986470;28;20077;-78
2022/08/22 09:51:02;;;;;;;11.15;2.40;;;26.40;99.90;;;25.95;61.02;101446.03;4961586;28;20038;-78
2022/08/22 09:54:07;;;;;;;10.82;2.53;;;26.30;99.90;;;25.59;60.50;101431.66;4985283;28;20509;-77
2022/08/22 09:56:53;;;;;;;8.02;2.20;;;26.40;99.90;;;25.90;60.87;101442.97;4990486;28;20430;-78
2022/08/22 09:59:50;;;;;;;;;;;26.30;99.90;;;25.17;61.33;101434.88;5005407;28;20041;-77
2022/08/22 10:02:28;;;;;;;11.68;2.20;;;26.00;99.90;;;25.19;61.94;101440.97;4981176;28;20370;-76
2022/08/22 10:05:42;;;;;;;7.72;1.88;;;26.10;99.90;;;25.63;61.36;101435.75;4983321;28;21313;-76
2022/08/22 10:08:38;;;;;;;8.23;2.25;;;26.10;99.90;;;25.68;61.49;101437.97;5001049;28;20038;-77
2022/08/22 10:11:31;;;;;;;9.75;2.30;;;26.10;99.90;;;25.39;61.37;101436.34;5008397;28;20061;-76
2022/08/22 10:14:24;;;;;;;12.93;2.65;;;26.20;99.90;;;25.73;61.25;101438.41;4967591;28;20103;-77
2022/08/22 10:17:22;;;;;;;13.50;2.15;;;26.10;99.90;;;25.37;60.75;101436.47;4993684;28;20589;-77
2022/08/22 10:20:02;;;;;;;9.82;2.42;;;25.90;99.90;;;25.22;61.63;101431.75;4968976;28;20044;-77
2022/08/22 10:23:04;;;;;;;13.10;2.53;;;25.90;99.90;;;25.29;60.74;101433.72;4975465;28;20376;-77
2022/08/22 10:26:15;;;;;;;10.80;1.80;;;25.90;99.90;;;25.37;61.11;101438.34;4974714;28;20048;-77
2022/08/22 10:29:35;;;;;;;7.45;2.17;;;25.90;99.90;;;25.28;60.95;101431.16;4992232;28;20449;-76
2022/08/22 10:32:33;;;;;;;9.40;2.30;;;25.90;99.90;;;25.51;60.64;101437.84;5003728;28;20026;-76
2022/08/22 10:35:33;;;;;;;8.10;2.38;;;26.10;99.90;;;25.67;60.70;101437.16;4991481;28;20576;-77
2022/08/22 10:38:43;;;;;;;9.60;2.22;;;26.20;99.90;;;25.74;61.50;101438.22;5011747;28;20037;-76
2022/08/22 10:41:25;;;;;;;8.13;2.15;;;26.30;99.90;;;26.03;61.71;101450.69;4983227;28;20036;-77
2022/08/22 10:44:12;;;;;;;6.78;1.90;;;26.50;99.90;;;26.11;60.91;101441.78;4979661;28;20053;-77
2022/08/22 10:47:20;;;;;;;8.13;2.20;;;26.70;99.90;;;26.22;57.95;101440.69;4990838;28;20151;-76
2022/08/22 10:50:20;;;;;;;8.63;2.40;;;26.70;99.90;;;26.29;59.12;101448.03;4996534;28;20037;-76
2022/08/22 10:55:49;;;;;;;6.80;2.10;;;26.60;99.90;;;26.05;59.27;101453.19;4975648;28;20492;-77
2022/08/22 10:58:33;;;;;;;8.55;2.40;;;26.40;99.90;;;25.42;58.35;101441.44;4973083;28;20056;-76
2022/08/22 11:01:03;;;;;;;10.25;2.55;;;26.30;99.90;;;25.38;59.34;101450.84;4989692;28;20033;-77
2022/08/22 11:04:25;;;;;;;8.95;2.50;;;26.10;99.90;;;25.65;59.35;101446.38;4992179;28;20053;-77
2022/08/22 11:07:28;;;;;;;10.13;2.35;;;26.10;99.90;;;25.31;60.63;101449.72;5001756;28;20053;-77
2022/08/22 11:10:04;;;;;;;8.38;2.03;;;26.10;99.90;;;25.24;60.92;101448.63;4969140;28;20045;-76
2022/08/22 11:12:39;;;;;;;7.22;2.03;;;25.80;99.90;;;25.06;62.30;101453.94;5002056;28;20041;-77
2022/08/22 11:15:45;;;;;;;19.00;2.47;;;25.60;99.90;;;24.80;61.94;101446.53;4954556;28;20064;-77
2022/08/22 11:18:28;;;;;;;9.30;2.43;;;25.70;99.90;;;25.23;61.69;101452.34;4982335;28;20502;-77
2022/08/22 11:21:40;;;;;;;11.52;2.38;;;25.80;99.90;;;25.32;61.59;101451.44;4996886;28;20058;-77
2022/08/22 11:24:30;;;;;;;9.27;2.58;;;25.90;99.90;;;25.40;60.92;101450.66;4965206;28;20108;-76
2022/08/22 11:27:26;;;;;;;8.60;2.28;;;25.80;99.90;;;25.27;62.06;101451.88;5004476;28;20038;-77
2022/08/22 11:30:10;;;;;;;12.48;3.08;;;25.80;99.90;;;25.24;62.27;101454.84;5006933;28;20048;-77
2022/08/22 11:32:56;;;;;;;9.07;2.25;;;25.80;99.90;;;25.27;62.31;101456.41;4945931;28;20031;-76
2022/08/22 11:35:36;;;;;;;12.98;2.83;;;25.90;99.90;;;25.50;62.03;101460.38;5000505;28;20513;-76
2022/08/22 11:38:23;;;;;;;15.20;2.65;;;25.80;99.90;;;25.39;62.81;101457.91;4964609;28;20030;-76
2022/08/22 11:41:24;;;;;;;14.07;2.67;;;25.80;99.90;;;25.09;63.61;101449.09;4996060;28;20107;-77
2022/08/22 11:44:10;;;;;;;9.85;2.25;;;25.70;99.90;;;25.06;64.02;101454.78;4997412;28;20124;-77